Time;durP1;ratioP1;P1;durP2;ratioP2;P2;SDS_P1;SDS_P2;PMS_P1;PMS_P2;Temp;Humidity;BMP_temperature;BMP_pressure;BME280_temperature;BME280_humidity;BME280_pressure;Samples;Min_cycle;Max_cycle;Signal;HPM_P1;HPM_P2
2023/01/13 00:00:48;;;;;;;1.08;0.43;;;9.70;99.90;;;;;;4921294;28;20078;-83
2023/01/13 00:03:14;;;;;;;0.50;0.30;;;9.70;99.90;;;;;;4920642;28;20105;-83
2023/01/13 00:05:39;;;;;;;2.05;0.90;;;9.80;99.90;;;;;;4938470;28;20108;-83
2023/01/13 00:08:05;;;;;;;1.13;0.30;;;9.70;99.90;;;;;;4936298;28;20111;-83
2023/01/13 00:10:34;;;;;;;0.80;0.38;;;9.70;99.90;;;;;;4920589;28;20135;-83
2023/01/13 00:13:00;;;;;;;0.75;0.47;;;9.70;99.90;;;;;;4911922;28;20034;-83
2023/01/13 00:15:25;;;;;;;0.60;0.43;;;9.70;99.90;;;;;;4922053;28;20031;-83
2023/01/13 00:17:51;;;;;;;0.52;0.30;;;9.70;99.90;;;;;;4935424;28;20030;-83
2023/01/13 00:20:16;;;;;;;1.33;0.50;;;9.70;99.90;;;;;;4912512;28;20086;-83
2023/01/13 00:22:42;;;;;;;0.47;0.47;;;9.70;99.90;;;;;;4918912;28;20034;-83
2023/01/13 00:25:08;;;;;;;0.38;0.35;;;9.70;99.90;;;;;;4924233;28;20035;-83
2023/01/13 00:27:33;;;;;;;0.55;0.45;;;9.70;99.90;;;;;;4940118;28;20046;-83
2023/01/13 00:29:59;;;;;;;0.43;0.30;;;9.70;99.90;;;;;;4940162;28;20026;-83
2023/01/13 00:32:25;;;;;;;1.02;0.20;;;9.60;99.90;;;;;;4958463;28;20126;-83
2023/01/13 00:34:50;;;;;;;0.52;0.40;;;9.60;99.90;;;;;;4932247;28;20367;-83
2023/01/13 00:37:16;;;;;;;3.42;0.40;;;9.50;99.90;;;;;;4932785;28;20526;-83
2023/01/13 00:39:41;;;;;;;1.20;0.57;;;9.60;99.90;;;;;;4919615;28;20035;-83
2023/01/13 00:44:51;;;;;;;0.52;0.32;;;9.50;99.90;;;;;;4941975;28;20036;-83
2023/01/13 00:47:17;;;;;;;0.88;0.77;;;9.50;99.90;;;;;;4918941;28;20042;-83
2023/01/13 00:49:43;;;;;;;2.70;0.43;;;9.50;99.90;;;;;;4915842;28;20603;-82
2023/01/13 00:52:11;;;;;;;0.13;0.10;;;9.50;99.90;;;;;;4941399;28;20050;-84
2023/01/13 00:54:37;;;;;;;1.20;0.52;;;9.50;99.90;;;;;;4920680;28;20066;-83
2023/01/13 00:57:03;;;;;;;2.83;0.82;;;9.50;99.90;;;;;;4922254;28;20073;-83
2023/01/13 00:59:29;;;;;;;10.35;0.55;;;9.50;99.90;;;;;;4925403;28;20058;-83
2023/01/13 01:01:54;;;;;;;0.17;0.15;;;9.50;99.90;;;;;;4920033;28;20042;-83
2023/01/13 01:04:20;;;;;;;5.72;0.40;;;9.50;99.90;;;;;;4934110;28;20050;-83
2023/01/13 01:06:45;;;;;;;4.25;0.47;;;9.50;99.90;;;;;;4922753;28;20054;-83
2023/01/13 01:09:14;;;;;;;1.45;0.40;;;9.40;99.90;;;;;;4939436;28;20055;-83
2023/01/13 01:11:40;;;;;;;2.97;0.43;;;9.40;99.90;;;;;;4926987;28;20032;-84
2023/01/13 01:14:05;;;;;;;1.00;0.57;;;9.40;99.90;;;;;;4915491;28;20047;-84
2023/01/13 01:16:31;;;;;;;0.80;0.50;;;9.40;99.90;;;;;;4920160;28;20533;-83
2023/01/13 01:18:57;;;;;;;0.98;0.45;;;9.40;99.90;;;;;;4931577;28;20101;-83
2023/01/13 01:21:23;;;;;;;4.38;0.60;;;9.30;99.90;;;;;;4919949;28;20498;-83
2023/01/13 01:23:49;;;;;;;6.15;0.60;;;9.30;99.90;;;;;;4919214;28;20410;-83
2023/01/13 01:26:22;;;;;;;5.38;1.17;;;9.30;99.90;;;;;;4921756;28;20050;-83
2023/01/13 01:28:47;;;;;;;3.08;0.80;;;9.20;99.90;;;;;;4935098;28;20070;-83
2023/01/13 01:31:21;;;;;;;4.13;0.70;;;9.30;99.90;;;;;;4919024;28;20121;-83
2023/01/13 01:33:47;;;;;;;3.58;0.75;;;9.30;99.90;;;;;;4934949;28;20503;-83
2023/01/13 01:36:14;;;;;;;7.15;0.98;;;9.30;99.90;;;;;;4936150;28;20031;-83
2023/01/13 01:38:39;;;;;;;6.18;1.30;;;9.20;99.90;;;;;;4921069;28;20031;-83
2023/01/13 01:41:05;;;;;;;7.55;0.65;;;9.20;99.90;;;;;;4934198;28;20045;-83
2023/01/13 01:44:01;;;;;;;5.65;0.50;;;9.10;99.90;;;;;;4934407;28;20038;-83
2023/01/13 01:46:37;;;;;;;4.57;0.73;;;9.10;99.90;;;;;;4936758;28;20051;-83
2023/01/13 01:49:16;;;;;;;3.28;0.50;;;9.10;99.90;;;;;;4914478;28;20070;-83
2023/01/13 01:51:48;;;;;;;8.20;1.20;;;9.20;99.90;;;;;;4952820;28;20038;-83
2023/01/13 01:54:20;;;;;;;12.38;1.08;;;9.10;99.90;;;;;;4936178;28;20126;-83
2023/01/13 01:56:45;;;;;;;9.45;1.50;;;9.20;99.90;;;;;;4931379;28;20188;-83
2023/01/13 01:59:11;;;;;;;5.35;0.60;;;9.10;99.90;;;;;;4929487;28;20601;-83
2023/01/13 02:01:37;;;;;;;6.30;0.75;;;9.10;99.90;;;;;;4917598;28;22167;-83
2023/01/13 02:04:06;;;;;;;8.23;1.20;;;9.10;99.90;;;;;;4939332;28;20034;-83
2023/01/13 02:06:31;;;;;;;4.65;1.05;;;9.00;99.90;;;;;;4939756;28;20125;-83
2023/01/13 02:08:57;;;;;;;8.65;1.02;;;9.10;99.90;;;;;;4923243;28;20146;-83
2023/01/13 02:14:14;;;;;;;1.80;0.70;;;9.10;99.90;;;;;;4938408;28;20042;-83
2023/01/13 02:16:43;;;;;;;3.28;0.90;;;9.10;99.90;;;;;;4915804;28;20390;-83
2023/01/13 02:19:48;;;;;;;6.47;1.27;;;9.00;99.90;;;;;;4926109;28;20053;-81
2023/01/13 02:22:26;;;;;;;3.55;0.93;;;9.00;99.90;;;;;;4970340;28;20042;-83
2023/01/13 02:24:58;;;;;;;9.68;1.73;;;9.00;99.90;;;;;;4947563;28;20054;-83
2023/01/13 02:27:40;;;;;;;3.78;0.93;;;9.00;99.90;;;;;;4968018;28;20038;-83
2023/01/13 02:33:25;;;;;;;10.27;1.52;;;8.90;99.90;;;;;;4946819;28;20034;-83
2023/01/13 02:35:55;;;;;;;8.70;0.82;;;8.80;99.90;;;;;;4964975;28;20027;-83
2023/01/13 02:38:24;;;;;;;10.00;1.02;;;8.80;99.90;;;;;;4947157;28;20526;-82
2023/01/13 02:44:05;;;;;;;8.63;1.48;;;8.80;99.90;;;;;;4953447;28;20032;-83
2023/01/13 02:46:30;;;;;;;0.95;0.45;;;8.80;99.90;;;;;;4951804;28;20597;-83
2023/01/13 02:48:57;;;;;;;9.18;1.20;;;8.80;99.90;;;;;;4933916;28;20118;-82
2023/01/13 02:51:24;;;;;;;5.35;0.70;;;8.80;99.90;;;;;;4914025;28;20039;-82
2023/01/13 02:53:53;;;;;;;6.32;0.73;;;8.70;99.90;;;;;;4934551;28;20035;-83
2023/01/13 02:56:19;;;;;;;6.10;1.15;;;8.80;99.90;;;;;;4936397;28;20026;-83
2023/01/13 02:58:44;;;;;;;2.03;0.65;;;8.80;99.90;;;;;;4919757;28;20046;-83
2023/01/13 03:01:10;;;;;;;1.35;0.30;;;8.80;99.90;;;;;;4918876;28;20678;-82
2023/01/13 03:03:35;;;;;;;10.02;0.80;;;8.80;99.90;;;;;;4914917;28;20038;-83
2023/01/13 03:06:30;;;;;;;4.45;0.70;;;8.70;99.90;;;;;;4931047;28;20031;-83
2023/01/13 03:09:05;;;;;;;4.22;0.73;;;8.60;99.90;;;;;;4955487;28;20035;-83
2023/01/13 03:11:36;;;;;;;8.27;0.65;;;8.50;99.90;;;;;;4938162;28;20490;-83
2023/01/13 03:14:04;;;;;;;5.53;0.85;;;8.50;99.90;;;;;;4937230;28;20026;-83
2023/01/13 03:16:55;;;;;;;1.00;0.22;;;8.40;99.90;;;;;;4945442;28;20114;-82
2023/01/13 03:19:53;;;;;;;5.63;0.88;;;8.40;99.90;;;;;;4935302;28;20030;-82
2023/01/13 03:22:32;;;;;;;1.40;0.25;;;8.30;99.90;;;;;;4919774;28;20409;-82
2023/01/13 03:25:19;;;;;;;2.35;0.43;;;8.30;99.90;;;;;;4953120;28;20031;-83
2023/01/13 03:27:56;;;;;;;3.33;0.60;;;8.30;99.90;;;;;;4956736;28;20070;-82
2023/01/13 03:30:28;;;;;;;3.70;0.63;;;8.20;99.90;;;;;;4937973;28;20455;-82
2023/01/13 03:33:02;;;;;;;8.68;0.65;;;8.20;99.90;;;;;;4930099;28;20068;-82
2023/01/13 03:35:52;;;;;;;8.93;1.10;;;8.20;99.90;;;;;;4931458;28;20031;-83
2023/01/13 03:38:22;;;;;;;8.57;0.93;;;8.20;99.90;;;;;;4953165;28;20034;-83
2023/01/13 03:40:56;;;;;;;5.40;0.55;;;8.00;99.90;;;;;;4919523;28;20042;-83
2023/01/13 03:46:36;;;;;;;3.10;0.30;;;8.10;99.90;;;;;;4953261;28;20090;-83
2023/01/13 03:49:02;;;;;;;4.93;0.50;;;8.00;99.90;;;;;;4924881;28;20405;-83
2023/01/13 03:51:28;;;;;;;4.70;0.73;;;7.90;99.90;;;;;;4924531;28;20038;-83
2023/01/13 03:53:56;;;;;;;11.75;0.95;;;8.00;99.90;;;;;;4919989;28;20031;-82
2023/01/13 03:56:29;;;;;;;8.85;0.73;;;7.80;99.90;;;;;;4923884;28;20027;-83
2023/01/13 03:58:54;;;;;;;5.70;0.70;;;7.90;99.90;;;;;;4938686;28;20059;-82
2023/01/13 04:01:23;;;;;;;4.50;0.60;;;7.80;99.90;;;;;;4937866;28;21171;-83
2023/01/13 04:03:53;;;;;;;1.23;0.32;;;7.70;99.90;;;;;;4953845;28;20035;-82
2023/01/13 04:06:30;;;;;;;1.45;0.40;;;7.80;99.90;;;;;;4937521;28;20038;-82
2023/01/13 04:09:01;;;;;;;10.07;0.98;;;7.70;99.90;;;;;;4935796;28;20498;-82
2023/01/13 04:11:33;;;;;;;4.03;1.20;;;7.60;99.90;;;;;;4922479;28;20069;-82
2023/01/13 04:13:59;;;;;;;6.60;0.90;;;7.70;99.90;;;;;;4946620;28;20035;-82
2023/01/13 04:16:25;;;;;;;8.02;0.80;;;7.70;99.90;;;;;;4924878;28;20039;-82
2023/01/13 04:18:50;;;;;;;5.18;0.20;;;7.70;99.90;;;;;;4926871;28;20085;-82
2023/01/13 04:21:16;;;;;;;9.95;0.60;;;7.60;99.90;;;;;;4924114;28;20470;-82
2023/01/13 04:23:41;;;;;;;1.83;0.57;;;7.60;99.90;;;;;;4916363;28;20042;-82
2023/01/13 04:26:07;;;;;;;4.80;1.17;;;7.70;99.90;;;;;;4934289;28;20089;-82
2023/01/13 04:28:33;;;;;;;10.38;0.68;;;7.60;99.90;;;;;;4920725;28;20106;-82
2023/01/13 04:31:02;;;;;;;2.92;0.50;;;7.60;99.90;;;;;;4913293;28;20549;-82
2023/01/13 04:33:27;;;;;;;4.57;0.38;;;7.70;99.90;;;;;;4936798;28;20556;-82
2023/01/13 04:35:54;;;;;;;2.38;0.65;;;7.70;99.90;;;;;;4921428;28;20035;-82
2023/01/13 04:38:20;;;;;;;4.15;0.85;;;7.70;99.90;;;;;;4934777;28;20577;-82
2023/01/13 04:40:45;;;;;;;11.93;1.35;;;7.70;99.90;;;;;;4935669;28;20058;-82
2023/01/13 04:43:11;;;;;;;6.90;0.90;;;7.80;99.90;;;;;;4920930;28;20133;-82
2023/01/13 04:45:39;;;;;;;3.95;0.65;;;7.60;99.90;;;;;;4951831;28;20092;-82
2023/01/13 04:48:04;;;;;;;12.05;1.20;;;7.60;99.90;;;;;;4938254;28;20023;-82
2023/01/13 04:50:30;;;;;;;3.78;0.52;;;7.80;99.90;;;;;;4920760;28;20027;-82
2023/01/13 04:52:55;;;;;;;6.25;1.35;;;7.80;99.90;;;;;;4940164;28;20486;-82
2023/01/13 04:55:22;;;;;;;1.55;0.70;;;7.80;99.90;;;;;;4921613;28;20030;-82
2023/01/13 04:57:47;;;;;;;6.68;0.88;;;7.80;99.90;;;;;;4916958;28;20034;-82
2023/01/13 05:00:14;;;;;;;7.38;0.73;;;7.80;99.90;;;;;;4919200;28;20730;-82
2023/01/13 05:02:40;;;;;;;2.58;1.10;;;7.90;99.90;;;;;;4929427;28;20023;-82
2023/01/13 05:05:06;;;;;;;4.78;0.93;;;7.80;99.90;;;;;;4920914;28;20027;-82
2023/01/13 05:07:31;;;;;;;5.07;0.80;;;7.80;99.90;;;;;;4911273;28;20343;-82
2023/01/13 05:09:57;;;;;;;3.40;0.52;;;7.80;99.90;;;;;;4921693;28;20046;-82
2023/01/13 05:17:52;;;;;;;17.73;1.48;;;7.80;99.90;;;;;;4934194;28;20102;-82
2023/01/13 05:20:18;;;;;;;8.68;1.15;;;7.90;99.90;;;;;;4920869;28;20038;-82
2023/01/13 05:25:28;;;;;;;6.05;1.02;;;7.90;99.90;;;;;;4941817;28;20037;-82
2023/01/13 05:27:58;;;;;;;12.80;1.27;;;7.90;99.90;;;;;;4916074;28;20050;-84
2023/01/13 05:30:28;;;;;;;12.20;1.63;;;7.90;99.90;;;;;;4921961;28;20110;-83
2023/01/13 05:32:53;;;;;;;8.73;0.93;;;7.80;99.90;;;;;;4913010;28;20042;-83
2023/01/13 05:35:19;;;;;;;5.47;0.50;;;7.80;99.90;;;;;;4921797;28;20522;-83
2023/01/13 05:37:45;;;;;;;3.70;0.80;;;7.80;99.90;;;;;;4919388;28;20050;-83
2023/01/13 05:43:18;;;;;;;9.65;0.70;;;7.90;99.90;;;;;;4937558;28;20065;-83
2023/01/13 05:46:07;;;;;;;9.15;1.63;;;7.80;99.90;;;;;;4944341;28;20541;-83
2023/01/13 05:48:35;;;;;;;11.82;1.65;;;7.80;99.90;;;;;;4944502;28;20398;-83
2023/01/13 05:51:01;;;;;;;9.57;1.48;;;7.70;99.90;;;;;;4936398;28;20557;-83
2023/01/13 05:53:27;;;;;;;6.25;0.60;;;7.80;99.90;;;;;;4920586;28;20042;-83
2023/01/13 05:55:52;;;;;;;9.65;1.15;;;7.80;99.90;;;;;;4931354;28;20588;-83
2023/01/13 05:58:19;;;;;;;2.95;0.73;;;7.80;99.90;;;;;;4930176;28;20050;-83
2023/01/13 06:00:45;;;;;;;8.52;1.27;;;7.70;99.90;;;;;;4931100;28;20483;-83
2023/01/13 06:03:10;;;;;;;3.88;0.60;;;7.80;99.90;;;;;;4915879;28;20036;-83
2023/01/13 06:05:36;;;;;;;6.55;1.48;;;7.70;99.90;;;;;;4917747;28;20076;-83
2023/01/13 06:08:02;;;;;;;15.23;2.00;;;7.70;99.90;;;;;;4918720;28;20054;-83
2023/01/13 06:10:28;;;;;;;10.35;1.42;;;7.70;99.90;;;;;;4920371;28;20034;-83
2023/01/13 06:12:54;;;;;;;7.20;1.38;;;7.60;99.90;;;;;;4926540;28;20047;-83
2023/01/13 06:15:19;;;;;;;17.33;2.67;;;7.60;99.90;;;;;;4916806;28;20065;-83
2023/01/13 06:17:45;;;;;;;6.15;1.33;;;7.70;99.90;;;;;;4933298;28;20035;-83
2023/01/13 06:20:11;;;;;;;7.85;0.57;;;7.60;99.90;;;;;;4936662;28;20449;-83
2023/01/13 06:22:38;;;;;;;2.53;1.00;;;7.70;99.90;;;;;;4918325;28;20027;-83
2023/01/13 06:25:10;;;;;;;9.43;1.95;;;7.70;99.90;;;;;;4948540;28;20042;-83
2023/01/13 06:27:36;;;;;;;10.77;1.27;;;7.70;99.90;;;;;;4920221;28;20470;-83
2023/01/13 06:30:02;;;;;;;9.38;1.27;;;7.80;99.90;;;;;;4929663;28;20028;-83
2023/01/13 06:32:30;;;;;;;2.42;0.45;;;7.70;99.90;;;;;;4939199;28;20605;-83
2023/01/13 06:34:59;;;;;;;9.70;2.13;;;7.60;99.90;;;;;;4919696;28;20065;-83
2023/01/13 06:37:25;;;;;;;10.77;1.42;;;7.60;99.90;;;;;;4914679;28;20031;-83
2023/01/13 06:39:51;;;;;;;9.32;2.38;;;7.60;99.90;;;;;;4932542;28;20058;-83
2023/01/13 06:45:00;;;;;;;6.20;0.93;;;7.50;99.90;;;;;;4939742;28;20398;-81
2023/01/13 06:47:26;;;;;;;7.65;0.90;;;7.60;99.90;;;;;;4929368;28;20059;-80
2023/01/13 06:49:52;;;;;;;12.82;2.33;;;7.50;99.90;;;;;;4935218;28;20035;-81
2023/01/13 06:52:17;;;;;;;6.82;1.23;;;7.50;99.90;;;;;;4916318;28;20035;-81
2023/01/13 06:54:43;;;;;;;9.23;1.10;;;7.50;99.90;;;;;;4945172;28;20035;-81
2023/01/13 06:57:08;;;;;;;6.82;1.30;;;7.50;99.90;;;;;;4917980;28;20043;-81
2023/01/13 06:59:34;;;;;;;5.95;1.05;;;7.40;99.90;;;;;;4922303;28;20034;-81
2023/01/13 07:02:00;;;;;;;13.55;2.25;;;7.40;99.90;;;;;;4933928;28;20030;-81
2023/01/13 07:04:25;;;;;;;7.78;1.17;;;7.30;99.90;;;;;;4915040;28;20034;-81
2023/01/13 07:06:51;;;;;;;10.35;1.38;;;7.40;99.90;;;;;;4919747;28;20442;-81
2023/01/13 07:09:16;;;;;;;2.83;0.90;;;7.40;99.90;;;;;;4935928;28;20031;-81
2023/01/13 07:11:42;;;;;;;10.38;2.17;;;7.40;99.90;;;;;;4920297;28;20078;-81
2023/01/13 07:16:53;;;;;;;12.95;1.30;;;7.30;99.90;;;;;;4940805;28;20053;-81
2023/01/13 07:19:22;;;;;;;3.40;1.38;;;7.30;99.90;;;;;;4938248;28;20034;-84
2023/01/13 07:21:50;;;;;;;5.07;0.85;;;7.20;99.90;;;;;;4936453;28;20528;-81
2023/01/13 07:24:16;;;;;;;6.93;1.20;;;7.30;99.90;;;;;;4923646;28;20042;-81
2023/01/13 07:26:42;;;;;;;7.43;2.13;;;7.20;99.90;;;;;;4934824;28;20039;-83
2023/01/13 07:29:07;;;;;;;5.60;1.00;;;7.20;99.90;;;;;;4937641;28;20055;-83
2023/01/13 07:31:33;;;;;;;6.53;1.00;;;7.30;99.90;;;;;;4934342;28;20042;-83
2023/01/13 07:33:58;;;;;;;5.00;1.30;;;7.30;99.90;;;;;;4920715;28;20496;-82
2023/01/13 07:36:24;;;;;;;4.18;1.13;;;7.30;99.90;;;;;;4937568;28;20057;-83
2023/01/13 07:38:49;;;;;;;13.02;1.20;;;7.20;99.90;;;;;;4940977;28;20442;-83
2023/01/13 07:44:01;;;;;;;13.82;1.50;;;7.20;99.90;;;;;;4943374;28;20029;-82
2023/01/13 07:46:28;;;;;;;6.35;0.90;;;7.20;99.90;;;;;;4944716;28;20049;-83
2023/01/13 07:48:55;;;;;;;8.68;2.08;;;7.10;99.90;;;;;;4933656;28;20514;-82
2023/01/13 07:51:21;;;;;;;4.38;0.80;;;7.30;99.90;;;;;;4938551;28;20046;-83
2023/01/13 07:53:46;;;;;;;9.93;1.30;;;7.20;99.90;;;;;;4942701;28;20429;-82
2023/01/13 07:56:12;;;;;;;6.32;1.30;;;7.30;99.90;;;;;;4930372;28;20030;-82
2023/01/13 07:58:37;;;;;;;6.88;1.30;;;7.30;99.90;;;;;;4922881;28;20113;-82
2023/01/13 08:01:10;;;;;;;6.18;1.38;;;7.20;99.90;;;;;;4921421;28;20041;-82
2023/01/13 08:03:36;;;;;;;12.10;1.88;;;7.30;99.90;;;;;;4914043;28;20043;-83
2023/01/13 08:06:03;;;;;;;8.55;1.05;;;7.30;99.90;;;;;;4921764;28;20497;-82
2023/01/13 08:08:28;;;;;;;4.72;0.82;;;7.40;99.90;;;;;;4921874;28;20027;-82
2023/01/13 08:10:58;;;;;;;7.60;1.05;;;7.40;99.90;;;;;;4941244;28;20034;-82
2023/01/13 08:13:23;;;;;;;5.55;1.38;;;7.50;99.90;;;;;;4918039;28;20501;-82
2023/01/13 08:15:57;;;;;;;9.77;1.17;;;7.60;99.90;;;;;;4918570;28;20022;-82
2023/01/13 08:18:23;;;;;;;8.35;1.27;;;7.50;99.90;;;;;;4952783;28;20106;-82
2023/01/13 08:20:51;;;;;;;3.92;0.60;;;7.60;99.90;;;;;;4924700;28;20129;-82
2023/01/13 08:23:17;;;;;;;3.40;0.88;;;7.60;99.90;;;;;;4939212;28;20173;-82
2023/01/13 08:25:42;;;;;;;5.97;1.20;;;7.70;99.90;;;;;;4935962;28;20034;-82
2023/01/13 08:28:08;;;;;;;7.45;1.50;;;7.60;99.90;;;;;;4921978;28;20521;-82
2023/01/13 08:30:33;;;;;;;9.95;1.80;;;7.60;99.90;;;;;;4937269;28;20039;-83
2023/01/13 08:32:59;;;;;;;7.45;1.05;;;7.70;99.90;;;;;;4957771;28;20038;-83
2023/01/13 08:35:24;;;;;;;5.55;0.38;;;7.60;99.90;;;;;;4937037;28;20418;-82
2023/01/13 08:37:50;;;;;;;10.85;1.15;;;7.80;99.90;;;;;;4938062;28;20446;-82
2023/01/13 08:40:16;;;;;;;7.60;1.15;;;7.80;99.90;;;;;;4933470;28;20035;-83
2023/01/13 08:42:42;;;;;;;12.13;1.55;;;7.80;99.90;;;;;;4950755;28;20502;-83
2023/01/13 08:45:07;;;;;;;9.00;1.33;;;7.80;99.90;;;;;;4923361;28;20035;-83
2023/01/13 08:47:33;;;;;;;7.00;0.80;;;7.80;99.90;;;;;;4949738;28;20035;-83
2023/01/13 08:49:58;;;;;;;9.93;1.40;;;7.80;99.90;;;;;;4935876;28;20041;-83
2023/01/13 08:52:24;;;;;;;9.38;1.75;;;7.80;99.90;;;;;;4919609;28;20027;-83
2023/01/13 08:54:50;;;;;;;6.97;1.02;;;7.80;99.90;;;;;;4915208;28;20114;-82
2023/01/13 08:57:18;;;;;;;9.20;1.23;;;7.90;99.90;;;;;;4933130;28;20039;-82
2023/01/13 08:59:45;;;;;;;7.07;1.23;;;7.90;99.90;;;;;;4950973;28;20030;-82
2023/01/13 09:02:14;;;;;;;9.85;0.88;;;7.90;99.90;;;;;;4937668;28;20113;-82
2023/01/13 09:04:40;;;;;;;10.10;1.05;;;7.90;99.90;;;;;;4924562;28;20513;-82
2023/01/13 09:07:05;;;;;;;6.88;1.13;;;8.00;99.90;;;;;;4933820;28;20035;-82
2023/01/13 09:09:31;;;;;;;6.47;1.30;;;7.90;99.90;;;;;;4918507;28;20047;-83
2023/01/13 09:14:40;;;;;;;7.15;1.52;;;8.00;99.90;;;;;;4940931;28;20037;-83
2023/01/13 09:17:06;;;;;;;10.75;1.85;;;8.00;99.90;;;;;;4922685;28;20494;-83
2023/01/13 09:19:32;;;;;;;8.68;1.00;;;8.00;99.90;;;;;;4936878;28;20359;-83
2023/01/13 09:21:57;;;;;;;4.43;1.52;;;8.00;99.90;;;;;;4935822;28;20470;-83
2023/01/13 09:24:23;;;;;;;11.63;2.38;;;8.10;99.90;;;;;;4933799;28;20098;-83
2023/01/13 09:26:49;;;;;;;7.57;0.98;;;8.10;99.90;;;;;;4919588;28;20093;-83
2023/01/13 09:29:16;;;;;;;12.27;2.67;;;8.10;99.90;;;;;;4934444;28;20443;-82
2023/01/13 09:31:41;;;;;;;7.03;1.00;;;8.10;99.90;;;;;;4916556;28;20114;-82
2023/01/13 09:36:55;;;;;;;11.13;1.40;;;8.20;99.90;;;;;;4939718;28;20109;-82
2023/01/13 09:39:21;;;;;;;5.45;1.80;;;8.20;99.90;;;;;;4934397;28;20042;-83
2023/01/13 09:44:50;;;;;;;5.65;1.45;;;8.20;99.90;;;;;;4945548;28;20038;-83
2023/01/13 09:47:23;;;;;;;10.88;1.73;;;8.20;99.90;;;;;;4967016;28;20043;-83
2023/01/13 09:49:49;;;;;;;6.22;1.08;;;8.30;99.90;;;;;;4924378;28;20150;-82
2023/01/13 09:52:24;;;;;;;11.35;1.83;;;8.40;99.90;;;;;;4921491;28;20574;-83
2023/01/13 09:55:02;;;;;;;7.93;1.80;;;8.40;99.90;;;;;;4954987;28;20085;-83
2023/01/13 09:57:29;;;;;;;3.92;0.90;;;8.40;99.90;;;;;;4937483;28;20039;-83
2023/01/13 09:59:56;;;;;;;11.85;1.50;;;8.40;99.90;;;;;;4946700;28;20035;-83
2023/01/13 10:02:43;;;;;;;15.77;2.28;;;8.40;99.90;;;;;;4932868;28;20038;-82
2023/01/13 10:05:18;;;;;;;11.02;2.50;;;8.50;99.90;;;;;;4966247;28;20042;-83
2023/01/13 10:07:53;;;;;;;7.00;1.52;;;8.50;99.90;;;;;;4964235;28;20045;-83
2023/01/13 10:10:41;;;;;;;16.40;1.90;;;8.50;99.90;;;;;;4937497;28;20445;-82
2023/01/13 10:13:21;;;;;;;16.20;1.42;;;8.50;99.90;;;;;;4918239;28;20039;-82
2023/01/13 10:16:09;;;;;;;13.80;1.65;;;8.50;99.90;;;;;;4919410;28;20085;-82
2023/01/13 10:19:01;;;;;;;10.05;1.83;;;8.50;99.90;;;;;;4955628;28;20027;-82
2023/01/13 10:21:55;;;;;;;8.90;1.25;;;8.60;99.90;;;;;;4929157;28;20050;-82
2023/01/13 10:24:58;;;;;;;11.07;2.05;;;8.60;99.90;;;;;;4948414;28;20039;-82
2023/01/13 10:27:36;;;;;;;18.73;2.70;;;8.60;99.90;;;;;;4952492;28;20054;-82
2023/01/13 10:30:16;;;;;;;11.80;2.05;;;8.60;99.90;;;;;;4921713;28;20062;-82
2023/01/13 10:32:46;;;;;;;14.15;2.42;;;8.70;99.90;;;;;;4972230;28;20171;-82
2023/01/13 10:35:12;;;;;;;18.20;3.08;;;8.70;99.90;;;;;;4934810;28;20110;-81
2023/01/13 10:37:38;;;;;;;11.10;1.73;;;8.70;99.90;;;;;;4923769;28;20051;-82
2023/01/13 10:40:06;;;;;;;5.25;1.20;;;8.80;99.90;;;;;;4934411;28;20479;-82
2023/01/13 10:42:31;;;;;;;15.02;2.17;;;8.80;99.90;;;;;;4921364;28;20030;-82
2023/01/13 10:44:58;;;;;;;11.80;1.65;;;8.90;99.90;;;;;;4935760;28;20050;-83
2023/01/13 10:47:34;;;;;;;12.13;2.05;;;8.90;99.90;;;;;;4935384;28;20042;-82
2023/01/13 10:50:12;;;;;;;14.43;2.63;;;9.10;99.90;;;;;;4937831;28;20502;-82
2023/01/13 10:53:14;;;;;;;6.93;1.70;;;9.20;99.90;;;;;;4953374;28;20490;-83
2023/01/13 10:55:40;;;;;;;8.40;0.88;;;9.30;99.90;;;;;;4961910;28;20046;-82
2023/01/13 10:58:20;;;;;;;19.70;1.92;;;9.40;99.90;;;;;;4922944;28;20403;-83
2023/01/13 11:00:46;;;;;;;17.98;2.45;;;9.50;99.90;;;;;;4955363;28;20089;-83
2023/01/13 11:03:30;;;;;;;11.32;2.00;;;9.50;99.90;;;;;;4936124;28;20094;-83
2023/01/13 11:05:57;;;;;;;10.88;1.60;;;9.60;99.90;;;;;;4935960;28;20094;-83
2023/01/13 11:08:30;;;;;;;11.50;2.40;;;9.70;99.90;;;;;;4933795;28;20043;-83
2023/01/13 11:10:57;;;;;;;18.33;3.67;;;9.70;99.90;;;;;;4927603;28;20089;-83
2023/01/13 11:13:27;;;;;;;12.30;2.22;;;9.70;99.90;;;;;;4920019;28;20027;-83
2023/01/13 11:16:12;;;;;;;10.80;2.25;;;9.70;99.90;;;;;;4937406;28;20061;-81
2023/01/13 11:19:10;;;;;;;7.55;1.60;;;9.70;99.90;;;;;;4952437;28;20088;-81
2023/01/13 11:21:59;;;;;;;16.92;4.25;;;9.70;99.90;;;;;;4925637;28;20027;-84
2023/01/13 11:24:52;;;;;;;15.55;2.53;;;9.60;99.90;;;;;;4925072;28;20121;-84
2023/01/13 11:27:29;;;;;;;17.63;2.90;;;9.50;99.90;;;;;;4939966;28;20094;-85
2023/01/13 11:30:08;;;;;;;17.67;2.63;;;9.30;99.90;;;;;;4935249;28;20041;-83
2023/01/13 11:32:36;;;;;;;7.45;2.45;;;9.10;99.90;;;;;;4941633;28;20035;-83
2023/01/13 11:35:08;;;;;;;7.45;2.00;;;9.00;99.90;;;;;;4922286;28;20031;-82
2023/01/13 11:37:36;;;;;;;19.77;3.38;;;8.90;99.90;;;;;;4920185;28;20108;-83
2023/01/13 11:40:04;;;;;;;9.93;2.20;;;8.80;99.90;;;;;;4920427;28;20486;-84
2023/01/13 11:42:50;;;;;;;18.20;2.88;;;8.70;99.90;;;;;;4933197;28;20517;-85
2023/01/13 11:45:39;;;;;;;7.13;1.67;;;8.60;99.90;;;;;;4936553;28;20391;-85
2023/01/13 11:48:07;;;;;;;14.43;3.03;;;8.50;99.90;;;;;;4946480;28;20518;-83
2023/01/13 11:50:49;;;;;;;13.50;3.30;;;8.50;99.90;;;;;;4921563;28;20494;-83
2023/01/13 11:53:52;;;;;;;19.63;2.03;;;8.50;99.90;;;;;;4932356;28;20394;-83
2023/01/13 11:56:29;;;;;;;13.50;2.47;;;8.40;99.90;;;;;;4971069;28;20042;-83
2023/01/13 11:59:22;;;;;;;23.08;2.60;;;8.40;99.90;;;;;;4969057;28;20027;-83
2023/01/13 12:01:58;;;;;;;15.68;2.75;;;8.40;99.90;;;;;;4951340;28;20023;-83
2023/01/13 12:04:25;;;;;;;14.68;3.03;;;8.40;99.90;;;;;;4946235;28;20406;-83
2023/01/13 12:07:24;;;;;;;9.30;1.70;;;8.30;99.90;;;;;;4954182;28;20146;-83
2023/01/13 12:10:02;;;;;;;9.93;2.22;;;8.30;99.90;;;;;;4970004;28;20752;-83
2023/01/13 12:12:54;;;;;;;22.70;4.18;;;8.20;99.90;;;;;;4962450;28;20049;-83
2023/01/13 12:15:21;;;;;;;16.20;3.45;;;8.20;99.90;;;;;;4935288;28;20027;-84
2023/01/13 12:18:05;;;;;;;6.07;2.28;;;8.10;99.90;;;;;;4966392;28;20074;-84
2023/01/13 12:20:33;;;;;;;11.50;2.30;;;8.10;99.90;;;;;;4954233;28;20483;-83
2023/01/13 12:23:01;;;;;;;11.45;2.55;;;8.20;99.90;;;;;;4951544;28;20039;-83
2023/01/13 12:25:26;;;;;;;13.27;2.65;;;8.00;99.90;;;;;;4913885;28;20035;-84
2023/01/13 12:28:47;;;;;;;9.20;2.03;;;8.10;99.90;;;;;;4950792;28;20050;-83
2023/01/13 12:31:13;;;;;;;6.15;1.88;;;7.90;99.90;;;;;;4932596;28;20043;-83
2023/01/13 12:33:47;;;;;;;15.27;2.10;;;7.90;99.90;;;;;;4920737;28;20066;-83
2023/01/13 12:36:44;;;;;;;12.95;1.90;;;7.90;99.90;;;;;;4950866;28;20529;-82
2023/01/13 12:39:30;;;;;;;11.55;2.55;;;7.90;99.90;;;;;;4942108;28;20065;-86
2023/01/13 12:45:09;;;;;;;10.27;2.22;;;7.80;99.90;;;;;;4942469;28;20039;-83
2023/01/13 12:47:45;;;;;;;6.72;1.48;;;7.70;99.90;;;;;;4964573;28;20043;-84
2023/01/13 12:50:23;;;;;;;4.68;1.15;;;7.70;99.90;;;;;;4925421;28;20521;-83
2023/01/13 12:52:55;;;;;;;6.85;1.38;;;7.60;99.90;;;;;;4969319;28;20035;-84
2023/01/13 12:55:24;;;;;;;8.00;1.50;;;7.60;99.90;;;;;;4920392;28;20046;-84
2023/01/13 12:58:05;;;;;;;3.67;1.48;;;7.60;99.90;;;;;;4920184;28;20039;-83
2023/01/13 13:00:52;;;;;;;5.03;1.77;;;7.70;99.90;;;;;;4950485;28;20042;-83
2023/01/13 13:03:25;;;;;;;4.80;1.00;;;7.60;99.90;;;;;;4930271;28;20422;-83
2023/01/13 13:06:17;;;;;;;5.05;2.10;;;7.60;99.90;;;;;;4953960;28;20581;-83
2023/01/13 13:08:43;;;;;;;8.32;2.15;;;7.80;99.90;;;;;;4944379;28;20118;-82
2023/01/13 13:13:16;;;;;;;8.38;1.88;;;7.70;99.90;;;;;;4949113;28;20051;-83
2023/01/13 13:14:14;;;;;;;3.30;1.13;;;7.80;99.90;;;;;;4969096;28;20065;-84
2023/01/13 13:16:46;;;;;;;9.27;1.65;;;7.80;99.90;;;;;;4935411;28;20034;-84
2023/01/13 13:19:21;;;;;;;5.45;1.45;;;7.70;99.90;;;;;;4932710;28;20502;-83
2023/01/13 13:22:11;;;;;;;11.65;2.50;;;7.70;99.90;;;;;;4964694;28;20034;-83
2023/01/13 13:24:40;;;;;;;9.18;1.45;;;7.80;99.90;;;;;;4958278;28;20031;-83
2023/01/13 13:27:30;;;;;;;2.75;1.13;;;7.80;99.90;;;;;;4921336;28;20251;-83
2023/01/13 13:30:12;;;;;;;9.90;1.33;;;7.80;99.90;;;;;;4951371;28;20549;-83
2023/01/13 13:32:59;;;;;;;11.45;2.25;;;7.90;99.90;;;;;;4949943;28;20042;-83
2023/01/13 13:35:54;;;;;;;11.35;2.00;;;7.90;99.90;;;;;;4950984;28;20093;-83
2023/01/13 13:47:13;;;;;;;9.15;0.90;;;8.00;99.90;;;;;;4937561;28;20446;-83
2023/01/13 13:49:45;;;;;;;7.28;1.00;;;8.10;99.90;;;;;;4917321;28;20042;-83
2023/01/13 13:52:41;;;;;;;11.63;2.45;;;8.10;99.90;;;;;;4916192;28;20066;-83
2023/01/13 13:55:18;;;;;;;7.33;1.97;;;8.10;99.90;;;;;;4918995;28;20034;-83
2023/01/13 13:57:45;;;;;;;16.75;2.45;;;8.10;99.90;;;;;;4944794;28;20035;-83
2023/01/13 14:00:19;;;;;;;7.93;1.35;;;8.00;99.90;;;;;;4932549;28;20149;-83
2023/01/13 14:02:52;;;;;;;8.20;1.98;;;8.10;99.90;;;;;;4949606;28;20034;-83
2023/01/13 14:05:22;;;;;;;8.57;2.45;;;8.10;99.90;;;;;;4930802;28;20329;-83
2023/01/13 14:07:49;;;;;;;11.27;1.30;;;8.10;99.90;;;;;;4949553;28;20042;-83
2023/01/13 14:10:23;;;;;;;12.25;2.55;;;8.00;99.90;;;;;;4926738;28;20061;-83